Time;durP1;ratioP1;P1;durP2;ratioP2;P2;SDS_P1;SDS_P2;PMS_P1;PMS_P2;Temp;Humidity;BMP_temperature;BMP_pressure;BME280_temperature;BME280_humidity;BME280_pressure;Samples;Min_cycle;Max_cycle;Signal;HPM_P1;HPM_P2
2021/05/20 00:01:53;;;;;;;48.58;29.63;;;;;;;;;;5043219;28;20495;-48
2021/05/20 00:04:21;;;;;;;47.55;30.83;;;;;;;;;;5043046;28;20031;-51
2021/05/20 00:06:47;;;;;;;27.15;18.75;;;;;;;;;;5042879;28;20229;-47
2021/05/20 00:09:13;;;;;;;52.40;32.30;;;;;;;;;;5042870;28;20021;-49
2021/05/20 00:11:40;;;;;;;85.25;52.53;;;;;;;;;;5042903;28;20082;-50
2021/05/20 00:14:06;;;;;;;54.58;34.83;;;;;;;;;;5042645;28;20103;-50
2021/05/20 00:16:32;;;;;;;63.22;40.58;;;;;;;;;;5043087;28;20490;-50
2021/05/20 00:18:58;;;;;;;42.45;29.08;;;;;;;;;;5043000;28;20048;-46
2021/05/20 00:21:25;;;;;;;98.82;60.70;;;;;;;;;;5042790;28;20031;-50
2021/05/20 00:23:51;;;;;;;48.78;30.90;;;;;;;;;;5042647;28;20033;-48
2021/05/20 00:26:17;;;;;;;77.82;48.45;;;;;;;;;;5043362;28;20021;-51
2021/05/20 00:28:43;;;;;;;70.18;45.72;;;;;;;;;;5041662;28;20017;-49
2021/05/20 00:31:09;;;;;;;39.13;24.13;;;;;;;;;;5042796;28;20739;-46
2021/05/20 00:33:35;;;;;;;25.10;16.10;;;;;;;;;;5042760;28;20027;-47
2021/05/20 00:36:02;;;;;;;27.08;18.17;;;;;;;;;;5043604;28;20036;-48
2021/05/20 00:38:28;;;;;;;44.65;28.23;;;;;;;;;;5057919;28;20086;-51
2021/05/20 00:40:58;;;;;;;43.80;27.58;;;;;;;;;;5072580;28;20086;-51
2021/05/20 00:43:24;;;;;;;23.30;14.60;;;;;;;;;;5073483;28;20032;-56
2021/05/20 00:45:50;;;;;;;11.95;8.32;;;;;;;;;;5073330;28;20024;-56
2021/05/20 00:48:17;;;;;;;45.25;27.98;;;;;;;;;;5073273;28;20051;-57
2021/05/20 00:50:43;;;;;;;45.13;30.80;;;;;;;;;;5072821;28;20056;-59
2021/05/20 00:53:10;;;;;;;23.20;15.43;;;;;;;;;;5072983;28;20484;-57
2021/05/20 00:55:37;;;;;;;44.25;29.13;;;;;;;;;;5055143;28;20037;-50
2021/05/20 00:58:03;;;;;;;42.28;25.17;;;;;;;;;;5073058;28;20074;-58
2021/05/20 01:00:29;;;;;;;27.20;18.40;;;;;;;;;;5073155;28;20036;-57
2021/05/20 01:02:55;;;;;;;96.63;54.88;;;;;;;;;;5073063;28;20163;-55
2021/05/20 01:05:21;;;;;;;32.17;19.25;;;;;;;;;;5073181;28;20024;-57
2021/05/20 01:07:49;;;;;;;133.82;84.03;;;;;;;;;;5072920;28;20028;-55
2021/05/20 01:10:15;;;;;;;58.67;35.90;;;;;;;;;;5072978;28;20138;-53
2021/05/20 01:12:41;;;;;;;61.95;37.17;;;;;;;;;;5072997;28;20103;-53
2021/05/20 01:15:20;;;;;;;30.65;20.00;;;;;;;;;;5072776;28;20032;-50
2021/05/20 01:17:53;;;;;;;17.80;10.73;;;;;;;;;;5073059;28;20115;-53
2021/05/20 01:20:21;;;;;;;75.35;48.00;;;;;;;;;;5072700;28;20025;-56
2021/05/20 01:22:49;;;;;;;27.48;19.52;;;;;;;;;;5072825;28;20052;-51
2021/05/20 01:25:16;;;;;;;23.75;15.95;;;;;;;;;;5072982;28;20439;-54
2021/05/20 01:27:43;;;;;;;22.45;15.65;;;;;;;;;;5072856;28;20074;-58
2021/05/20 01:30:11;;;;;;;39.20;26.00;;;;;;;;;;5072910;28;20027;-53
2021/05/20 01:32:37;;;;;;;17.50;12.32;;;;;;;;;;5072786;28;20463;-59
2021/05/20 01:35:05;;;;;;;30.67;19.83;;;;;;;;;;5072770;28;20028;-59
2021/05/20 01:37:31;;;;;;;27.88;17.75;;;;;;;;;;5072741;28;20074;-55
2021/05/20 01:39:57;;;;;;;39.60;24.73;;;;;;;;;;5072701;28;20024;-60
2021/05/20 01:42:23;;;;;;;26.98;17.38;;;;;;;;;;5072752;28;20024;-59
2021/05/20 01:44:50;;;;;;;47.83;28.70;;;;;;;;;;5072732;28;20060;-60
2021/05/20 01:47:16;;;;;;;57.97;32.60;;;;;;;;;;5072570;28;20073;-57
2021/05/20 01:49:49;;;;;;;44.22;25.05;;;;;;;;;;5072651;28;20067;-58
2021/05/20 01:52:15;;;;;;;39.22;23.25;;;;;;;;;;5074717;28;20045;-57
2021/05/20 01:54:43;;;;;;;16.70;10.82;;;;;;;;;;5076289;28;20025;-59
2021/05/20 01:57:09;;;;;;;37.78;25.77;;;;;;;;;;5076345;28;20046;-53
2021/05/20 01:59:35;;;;;;;82.57;45.63;;;;;;;;;;5076228;28;20021;-55
2021/05/20 02:02:01;;;;;;;23.35;15.68;;;;;;;;;;5076246;28;20027;-59
2021/05/20 02:04:27;;;;;;;57.63;37.55;;;;;;;;;;5076223;28;20051;-56
2021/05/20 02:06:53;;;;;;;109.55;62.97;;;;;;;;;;5076316;28;20025;-53
2021/05/20 02:09:20;;;;;;;57.67;37.20;;;;;;;;;;5076165;28;20032;-56
2021/05/20 02:11:46;;;;;;;24.83;16.77;;;;;;;;;;5076034;28;20100;-55
2021/05/20 02:14:12;;;;;;;34.28;23.77;;;;;;;;;;5075978;28;20032;-58
2021/05/20 02:16:38;;;;;;;70.25;41.17;;;;;;;;;;5075932;28;20073;-55
2021/05/20 02:19:04;;;;;;;57.00;35.85;;;;;;;;;;5075723;28;20032;-58
2021/05/20 02:21:30;;;;;;;36.25;24.95;;;;;;;;;;5075588;28;20115;-58
2021/05/20 02:23:56;;;;;;;50.85;33.05;;;;;;;;;;5075671;28;20025;-56
2021/05/20 02:26:22;;;;;;;46.53;29.65;;;;;;;;;;5075757;28;20028;-56
2021/05/20 02:28:48;;;;;;;52.40;32.70;;;;;;;;;;5075868;28;20021;-54
2021/05/20 02:31:16;;;;;;;54.10;34.60;;;;;;;;;;5075590;28;20413;-59
2021/05/20 02:33:43;;;;;;;42.15;27.50;;;;;;;;;;5075475;28;20013;-56
2021/05/20 02:36:09;;;;;;;32.90;23.10;;;;;;;;;;5075613;28;20127;-57
2021/05/20 02:38:35;;;;;;;47.70;32.58;;;;;;;;;;5075482;28;20066;-59
2021/05/20 02:41:01;;;;;;;40.67;26.83;;;;;;;;;;5075499;28;20063;-59
2021/05/20 02:43:27;;;;;;;24.00;17.63;;;;;;;;;;5075641;28;20484;-58
2021/05/20 02:45:53;;;;;;;40.65;27.08;;;;;;;;;;5075222;28;20036;-59
2021/05/20 02:48:19;;;;;;;23.42;18.20;;;;;;;;;;5075432;28;20103;-59
2021/05/20 02:50:45;;;;;;;34.65;22.65;;;;;;;;;;5074898;28;20091;-58
2021/05/20 02:53:11;;;;;;;26.92;18.00;;;;;;;;;;5075106;28;20115;-58
2021/05/20 02:55:38;;;;;;;24.00;17.40;;;;;;;;;;5075243;28;20494;-58
2021/05/20 02:58:04;;;;;;;34.80;25.33;;;;;;;;;;5075198;28;20074;-58
2021/05/20 03:00:35;;;;;;;30.15;21.75;;;;;;;;;;5075164;28;20063;-56
2021/05/20 03:03:01;;;;;;;15.75;13.23;;;;;;;;;;5074225;28;20050;-57
2021/05/20 03:05:29;;;;;;;23.77;18.02;;;;;;;;;;5074971;28;20024;-57
2021/05/20 03:07:56;;;;;;;23.50;17.67;;;;;;;;;;5074842;28;20025;-58
2021/05/20 03:10:25;;;;;;;20.33;15.52;;;;;;;;;;5074812;28;20029;-59
2021/05/20 03:12:51;;;;;;;21.27;15.48;;;;;;;;;;5074884;28;20017;-58
2021/05/20 03:15:17;;;;;;;20.73;15.38;;;;;;;;;;5074683;28;20028;-57
2021/05/20 03:17:43;;;;;;;15.98;13.13;;;;;;;;;;5056460;28;20387;-54
2021/05/20 03:20:10;;;;;;;16.67;13.75;;;;;;;;;;5074450;28;20036;-55
2021/05/20 03:22:36;;;;;;;19.70;15.63;;;;;;;;;;5074763;28;20052;-59
2021/05/20 03:25:02;;;;;;;18.42;14.20;;;;;;;;;;5056307;28;20098;-59
2021/05/20 03:27:28;;;;;;;17.52;13.35;;;;;;;;;;5074504;28;20025;-54
2021/05/20 03:29:54;;;;;;;17.70;12.20;;;;;;;;;;5074696;28;20020;-58
2021/05/20 03:32:20;;;;;;;15.05;11.77;;;;;;;;;;5074509;28;20029;-57
2021/05/20 03:34:46;;;;;;;16.05;13.23;;;;;;;;;;5074235;28;20101;-59
2021/05/20 03:37:12;;;;;;;17.20;12.65;;;;;;;;;;5074598;28;20468;-59
2021/05/20 03:39:39;;;;;;;16.42;13.35;;;;;;;;;;5074399;28;20487;-59
2021/05/20 03:42:05;;;;;;;15.02;12.00;;;;;;;;;;5074517;28;20070;-59
2021/05/20 03:44:31;;;;;;;15.57;12.43;;;;;;;;;;5074411;28;20024;-59
2021/05/20 03:46:57;;;;;;;12.05;10.68;;;;;;;;;;5074240;28;20120;-59
2021/05/20 03:49:24;;;;;;;16.55;12.52;;;;;;;;;;5074070;28;20024;-57
2021/05/20 03:51:50;;;;;;;16.40;13.50;;;;;;;;;;5073881;28;20047;-53
2021/05/20 03:54:16;;;;;;;11.90;10.13;;;;;;;;;;5073933;28;20081;-55
2021/05/20 03:56:42;;;;;;;16.58;12.35;;;;;;;;;;5073984;28;20059;-54
2021/05/20 03:59:08;;;;;;;21.48;11.40;;;;;;;;;;5074028;28;20016;-53
2021/05/20 04:01:34;;;;;;;14.13;11.88;;;;;;;;;;5073923;28;20028;-61
2021/05/20 04:04:00;;;;;;;12.18;10.70;;;;;;;;;;5073972;28;20021;-58
2021/05/20 04:06:26;;;;;;;13.27;10.38;;;;;;;;;;5074170;28;20029;-57
2021/05/20 04:08:52;;;;;;;13.65;10.88;;;;;;;;;;5073944;28;20165;-56
2021/05/20 04:11:18;;;;;;;14.18;10.20;;;;;;;;;;5073854;28;20021;-58
2021/05/20 04:13:46;;;;;;;11.70;9.18;;;;;;;;;;5073784;28;20024;-58
2021/05/20 04:16:13;;;;;;;9.50;8.55;;;;;;;;;;5073586;28;20157;-57
2021/05/20 04:18:39;;;;;;;8.80;7.13;;;;;;;;;;5073830;28;20012;-58
2021/05/20 04:21:06;;;;;;;13.07;8.52;;;;;;;;;;5073379;28;20552;-57
2021/05/20 04:23:32;;;;;;;8.15;7.20;;;;;;;;;;5073459;28;20384;-56
2021/05/20 04:25:58;;;;;;;14.15;10.40;;;;;;;;;;5073773;28;20387;-56
2021/05/20 04:28:26;;;;;;;11.60;8.60;;;;;;;;;;5073473;28;20016;-60
2021/05/20 04:30:55;;;;;;;10.20;8.27;;;;;;;;;;5055138;28;20047;-57
2021/05/20 04:33:21;;;;;;;10.18;7.30;;;;;;;;;;5073515;28;20411;-57
2021/05/20 04:35:49;;;;;;;8.95;7.60;;;;;;;;;;5073393;28;20056;-59
2021/05/20 04:38:15;;;;;;;8.70;7.80;;;;;;;;;;5073366;28;20560;-56
2021/05/20 04:40:42;;;;;;;7.53;5.97;;;;;;;;;;5073302;28;20040;-57
2021/05/20 04:43:08;;;;;;;12.27;8.38;;;;;;;;;;5073405;28;20100;-57
2021/05/20 04:45:35;;;;;;;10.45;7.03;;;;;;;;;;5073312;28;20074;-57
2021/05/20 04:48:01;;;;;;;9.63;7.60;;;;;;;;;;5073283;28;20024;-57
2021/05/20 04:50:28;;;;;;;9.30;6.57;;;;;;;;;;5072896;28;20040;-57
2021/05/20 04:52:54;;;;;;;7.35;6.30;;;;;;;;;;5073265;28;20032;-56
2021/05/20 04:55:20;;;;;;;8.48;6.05;;;;;;;;;;5073060;28;20036;-56
2021/05/20 04:57:46;;;;;;;6.30;5.28;;;;;;;;;;5073186;28;20387;-57
2021/05/20 05:00:13;;;;;;;7.82;6.25;;;;;;;;;;5073196;28;20103;-58
2021/05/20 05:02:39;;;;;;;7.05;5.45;;;;;;;;;;5073124;28;20055;-57
2021/05/20 05:05:06;;;;;;;5.85;5.03;;;;;;;;;;5072966;28;20089;-58
2021/05/20 05:07:32;;;;;;;4.75;4.00;;;;;;;;;;5072972;28;20032;-58
2021/05/20 05:09:58;;;;;;;4.72;4.20;;;;;;;;;;5072826;28;20040;-56
2021/05/20 05:12:26;;;;;;;14.60;7.85;;;;;;;;;;5072838;28;20145;-58
2021/05/20 05:14:52;;;;;;;9.45;7.50;;;;;;;;;;5072966;28;20380;-59
2021/05/20 05:17:18;;;;;;;11.75;6.65;;;;;;;;;;5073004;28;20029;-58
2021/05/20 05:19:44;;;;;;;30.95;16.73;;;;;;;;;;5072764;28;20111;-54
2021/05/20 05:22:10;;;;;;;10.55;7.03;;;;;;;;;;5072549;28;20468;-51
2021/05/20 05:24:36;;;;;;;13.77;8.60;;;;;;;;;;5072927;28;20021;-58
2021/05/20 05:27:04;;;;;;;17.38;10.77;;;;;;;;;;5074967;28;20103;-56
2021/05/20 05:29:32;;;;;;;21.52;12.98;;;;;;;;;;5058499;28;20040;-56
2021/05/20 05:31:58;;;;;;;19.13;13.38;;;;;;;;;;5076771;28;20108;-57
2021/05/20 05:34:24;;;;;;;28.35;17.40;;;;;;;;;;5076520;28;20028;-57
2021/05/20 05:36:50;;;;;;;17.98;11.88;;;;;;;;;;5076730;28;20085;-58
2021/05/20 05:39:16;;;;;;;15.40;8.90;;;;;;;;;;5076649;28;20032;-59
2021/05/20 05:41:42;;;;;;;15.02;10.18;;;;;;;;;;5076465;28;20028;-59
2021/05/20 05:44:11;;;;;;;9.77;6.43;;;;;;;;;;5076574;28;20031;-58
2021/05/20 05:46:37;;;;;;;12.85;8.52;;;;;;;;;;5076418;28;20025;-57
2021/05/20 05:51:57;;;;;;;26.38;15.43;;;;;;;;;;5014246;28;20169;-57
2021/05/20 05:54:23;;;;;;;70.30;26.88;;;;;;;;;;5014415;28;20045;-55
2021/05/20 05:56:50;;;;;;;32.03;15.48;;;;;;;;;;5014249;28;20155;-55
2021/05/20 05:59:16;;;;;;;42.25;18.02;;;;;;;;;;5014445;28;20580;-56
2021/05/20 06:01:42;;;;;;;112.63;53.50;;;;;;;;;;5014373;28;20394;-59
2021/05/20 06:04:11;;;;;;;54.50;25.35;;;;;;;;;;5014358;28;20101;-58
2021/05/20 06:06:37;;;;;;;34.17;15.80;;;;;;;;;;5014249;28;20022;-60
2021/05/20 06:09:07;;;;;;;33.30;16.00;;;;;;;;;;5013798;28;20040;-60
2021/05/20 06:11:38;;;;;;;12.45;7.80;;;;;;;;;;5014218;28;20026;-59
2021/05/20 06:14:06;;;;;;;22.35;13.25;;;;;;;;;;5014122;28;20137;-59
2021/05/20 06:16:36;;;;;;;20.20;11.23;;;;;;;;;;5013918;28;20393;-62
2021/05/20 06:19:04;;;;;;;41.58;21.38;;;;;;;;;;5013986;28;20112;-60
2021/05/20 06:21:31;;;;;;;50.63;29.00;;;;;;;;;;5013966;28;20026;-59
2021/05/20 06:23:59;;;;;;;43.72;23.05;;;;;;;;;;5013965;28;20030;-60
2021/05/20 06:26:25;;;;;;;44.13;24.58;;;;;;;;;;5013903;28;20030;-57
2021/05/20 06:28:54;;;;;;;32.05;18.75;;;;;;;;;;5042739;28;20036;-58
2021/05/20 06:31:20;;;;;;;33.17;17.38;;;;;;;;;;5075469;28;20399;-54
2021/05/20 06:33:48;;;;;;;23.95;13.13;;;;;;;;;;5075729;28;20017;-48
2021/05/20 06:36:15;;;;;;;21.80;13.38;;;;;;;;;;5075690;28;20036;-60
2021/05/20 06:38:41;;;;;;;44.65;27.38;;;;;;;;;;5074406;28;20070;-58
2021/05/20 06:41:09;;;;;;;47.97;25.10;;;;;;;;;;5075425;28;20020;-58
2021/05/20 06:43:35;;;;;;;35.33;21.45;;;;;;;;;;5075301;28;20028;-47
2021/05/20 06:46:01;;;;;;;52.22;31.15;;;;;;;;;;5057013;28;20563;-47
2021/05/20 06:48:27;;;;;;;64.95;37.97;;;;;;;;;;5075343;28;20074;-49
2021/05/20 06:50:53;;;;;;;52.88;31.70;;;;;;;;;;5074845;28;20412;-48
2021/05/20 06:53:22;;;;;;;31.00;20.90;;;;;;;;;;5075162;28;20028;-55
2021/05/20 06:55:48;;;;;;;43.58;23.27;;;;;;;;;;5057547;28;20025;-49
2021/05/20 07:00:41;;;;;;;8.50;5.57;;;;;;;;;;5074933;28;20050;-50
2021/05/20 07:03:15;;;;;;;60.13;34.72;;;;;;;;;;5075025;28;20025;-58
2021/05/20 07:05:41;;;;;;;65.30;40.95;;;;;;;;;;5074977;28;20048;-57
2021/05/20 07:08:07;;;;;;;40.25;23.63;;;;;;;;;;5074908;28;20464;-58
2021/05/20 07:10:35;;;;;;;38.22;22.73;;;;;;;;;;5074813;28;20074;-58
2021/05/20 07:13:03;;;;;;;37.90;23.00;;;;;;;;;;5074686;28;20039;-57
2021/05/20 07:15:29;;;;;;;33.00;20.70;;;;;;;;;;5074542;28;20036;-55
2021/05/20 07:17:55;;;;;;;14.85;10.15;;;;;;;;;;5074585;28;20468;-58
2021/05/20 07:20:21;;;;;;;38.97;22.00;;;;;;;;;;5074479;28;20090;-57
2021/05/20 07:22:48;;;;;;;43.22;23.27;;;;;;;;;;5074534;28;20037;-57
2021/05/20 07:25:14;;;;;;;55.83;32.10;;;;;;;;;;5074334;28;20039;-57
2021/05/20 07:27:40;;;;;;;72.43;42.15;;;;;;;;;;5074514;28;20391;-58
2021/05/20 07:30:06;;;;;;;61.53;35.63;;;;;;;;;;5074356;28;20090;-56
2021/05/20 07:32:32;;;;;;;56.50;30.67;;;;;;;;;;5074247;28;20025;-57
2021/05/20 07:34:58;;;;;;;29.58;19.08;;;;;;;;;;5074134;28;20033;-56
2021/05/20 07:37:25;;;;;;;13.27;8.60;;;;;;;;;;5074274;28;20033;-52
2021/05/20 07:39:51;;;;;;;35.50;17.83;;;;;;;;;;5074046;28;20021;-55
2021/05/20 07:42:17;;;;;;;9.88;5.80;;;;;;;;;;5074257;28;20032;-57
2021/05/20 07:44:44;;;;;;;18.55;10.00;;;;;;;;;;5073988;28;20388;-53
2021/05/20 07:47:10;;;;;;;15.68;8.88;;;;;;;;;;5074272;28;20024;-52
2021/05/20 07:49:37;;;;;;;21.33;11.70;;;;;;;;;;5073569;28;20024;-53
2021/05/20 07:52:04;;;;;;;12.63;6.88;;;;;;;;;;5073528;28;20055;-49
2021/05/20 07:54:31;;;;;;;31.45;15.63;;;;;;;;;;5073446;28;20093;-55
2021/05/20 07:56:57;;;;;;;48.90;26.70;;;;;;;;;;5073275;28;20139;-53
2021/05/20 07:59:23;;;;;;;42.45;20.52;;;;;;;;;;5073349;28;20017;-54
2021/05/20 08:02:01;;;;;;;20.80;11.75;;;;;;;;;;5073287;28;20091;-52
2021/05/20 08:04:29;;;;;;;17.88;10.63;;;;;;;;;;5071818;28;20021;-47
2021/05/20 08:07:05;;;;;;;29.33;15.10;;;;;;;;;;5073171;28;20468;-53
2021/05/20 08:09:34;;;;;;;13.88;10.55;;;;;;;;;;5073179;28;20020;-54
2021/05/20 08:12:00;;;;;;;17.58;10.93;;;;;;;;;;5070518;28;20099;-52
2021/05/20 08:14:26;;;;;;;14.43;9.32;;;;;;;;;;5073058;28;20019;-51
2021/05/20 08:16:53;;;;;;;21.98;11.95;;;;;;;;;;5073413;28;20039;-52
2021/05/20 08:19:19;;;;;;;11.45;8.75;;;;;;;;;;5053590;28;20070;-52
2021/05/20 08:21:45;;;;;;;10.80;8.43;;;;;;;;;;5053405;28;20028;-48
2021/05/20 08:24:11;;;;;;;11.60;9.38;;;;;;;;;;5053629;28;20064;-53
2021/05/20 08:26:37;;;;;;;11.20;8.20;;;;;;;;;;5053222;28;20131;-51
2021/05/20 08:29:04;;;;;;;46.47;23.83;;;;;;;;;;5053678;28;20029;-50
2021/05/20 08:31:32;;;;;;;37.85;15.55;;;;;;;;;;5053172;28;20025;-51
2021/05/20 08:33:58;;;;;;;68.80;38.70;;;;;;;;;;5053223;28;20024;-52
2021/05/20 08:36:24;;;;;;;126.60;68.45;;;;;;;;;;5053271;28;20037;-47
2021/05/20 08:38:50;;;;;;;140.70;79.47;;;;;;;;;;5053213;28;20028;-48
2021/05/20 08:41:20;;;;;;;35.40;23.13;;;;;;;;;;5052948;28;20487;-51
2021/05/20 08:43:46;;;;;;;44.45;26.10;;;;;;;;;;5053176;28;20477;-53
2021/05/20 08:46:12;;;;;;;25.10;15.68;;;;;;;;;;5053063;28;20029;-55
2021/05/20 08:48:38;;;;;;;47.15;28.67;;;;;;;;;;5053166;28;20362;-55
2021/05/20 08:51:05;;;;;;;36.65;22.50;;;;;;;;;;5052789;28;20053;-52
2021/05/20 08:53:31;;;;;;;72.47;38.92;;;;;;;;;;5053098;28;20103;-53
2021/05/20 08:55:57;;;;;;;66.13;37.60;;;;;;;;;;5052854;28;20107;-54
2021/05/20 08:58:26;;;;;;;38.65;24.63;;;;;;;;;;5053037;28;20021;-54
2021/05/20 09:00:53;;;;;;;32.88;20.08;;;;;;;;;;5053187;28;20025;-53
2021/05/20 09:03:20;;;;;;;38.08;21.88;;;;;;;;;;5057402;28;20055;-53
2021/05/20 09:05:47;;;;;;;24.13;14.27;;;;;;;;;;5057357;28;20488;-54
2021/05/20 09:08:21;;;;;;;50.95;28.08;;;;;;;;;;5057055;28;20040;-54
2021/05/20 09:10:48;;;;;;;72.97;39.15;;;;;;;;;;5056807;28;20053;-55
2021/05/20 09:13:20;;;;;;;59.33;29.60;;;;;;;;;;5057277;28;20389;-53
2021/05/20 09:15:48;;;;;;;197.48;108.43;;;;;;;;;;5056936;28;20476;-54
2021/05/20 09:18:15;;;;;;;88.10;47.55;;;;;;;;;;5056973;28;20021;-54
2021/05/20 09:20:46;;;;;;;63.95;39.47;;;;;;;;;;5056830;28;20108;-53
2021/05/20 09:23:16;;;;;;;35.20;21.25;;;;;;;;;;5056947;28;20147;-57
2021/05/20 09:25:42;;;;;;;61.67;35.85;;;;;;;;;;5056832;28;20025;-50
2021/05/20 09:28:10;;;;;;;64.55;37.55;;;;;;;;;;5056789;28;20536;-53
2021/05/20 09:30:37;;;;;;;36.00;21.92;;;;;;;;;;5056801;28;20087;-51
2021/05/20 09:33:08;;;;;;;32.15;19.92;;;;;;;;;;5056745;28;20029;-54
2021/05/20 09:35:36;;;;;;;51.53;31.20;;;;;;;;;;5038774;28;20035;-54
2021/05/20 09:38:02;;;;;;;32.08;19.70;;;;;;;;;;5056629;28;20036;-58
2021/05/20 09:40:31;;;;;;;106.47;58.13;;;;;;;;;;5038681;28;20025;-55
2021/05/20 09:42:58;;;;;;;84.00;48.80;;;;;;;;;;5056612;28;20523;-53
2021/05/20 09:45:25;;;;;;;75.40;43.60;;;;;;;;;;5056449;28;20513;-54
2021/05/20 09:47:51;;;;;;;116.75;73.18;;;;;;;;;;5056301;28;20021;-55
2021/05/20 09:50:20;;;;;;;53.40;28.95;;;;;;;;;;5056204;28;20028;-52
2021/05/20 09:52:46;;;;;;;70.10;44.50;;;;;;;;;;5056273;28;20033;-57
2021/05/20 09:55:26;;;;;;;121.43;71.22;;;;;;;;;;5056370;28;20021;-55
2021/05/20 09:57:53;;;;;;;25.60;17.92;;;;;;;;;;5056148;28;20493;-53
2021/05/20 10:00:21;;;;;;;67.63;40.92;;;;;;;;;;5056282;28;20096;-53
2021/05/20 10:02:47;;;;;;;35.72;22.30;;;;;;;;;;5056177;28;20610;-54
2021/05/20 10:05:43;;;;;;;36.45;22.85;;;;;;;;;;5056041;28;20095;-57
2021/05/20 10:08:13;;;;;;;27.20;18.75;;;;;;;;;;5047151;28;20033;-57
2021/05/20 10:10:43;;;;;;;43.25;26.83;;;;;;;;;;5055988;28;20385;-53
2021/05/20 10:13:10;;;;;;;30.92;18.63;;;;;;;;;;5055714;28;20383;-57
2021/05/20 10:15:39;;;;;;;78.70;42.08;;;;;;;;;;5055959;28;20047;-52
2021/05/20 10:18:25;;;;;;;52.42;30.17;;;;;;;;;;5055689;28;20495;-56
2021/05/20 10:20:54;;;;;;;95.28;53.05;;;;;;;;;;5055578;28;20037;-54
2021/05/20 10:23:21;;;;;;;45.70;29.08;;;;;;;;;;5055715;28;20027;-55
2021/05/20 10:25:48;;;;;;;32.53;21.13;;;;;;;;;;5055659;28;20067;-54
2021/05/20 10:28:15;;;;;;;96.00;58.80;;;;;;;;;;5055606;28;20043;-52
2021/05/20 10:30:43;;;;;;;106.50;63.03;;;;;;;;;;5055577;28;20025;-56
2021/05/20 10:33:09;;;;;;;45.70;29.42;;;;;;;;;;5055586;28;20499;-53
2021/05/20 10:35:41;;;;;;;56.90;34.40;;;;;;;;;;5055460;28;20488;-55
2021/05/20 10:38:08;;;;;;;64.10;40.58;;;;;;;;;;5055458;28;20470;-54
2021/05/20 10:40:34;;;;;;;57.80;36.00;;;;;;;;;;5055216;28;20114;-55
2021/05/20 10:43:06;;;;;;;21.85;15.85;;;;;;;;;;5055606;28;20105;-55
2021/05/20 10:45:33;;;;;;;32.53;19.30;;;;;;;;;;5055338;28;20379;-54
2021/05/20 10:48:05;;;;;;;42.47;19.35;;;;;;;;;;5055289;28;20063;-52
2021/05/20 10:50:49;;;;;;;75.18;27.20;;;;;;;;;;5055076;28;20029;-56
2021/05/20 10:53:34;;;;;;;58.60;24.88;;;;;;;;;;5055218;28;20052;-53
2021/05/20 10:56:00;;;;;;;32.33;15.80;;;;;;;;;;5055053;28;20041;-52
2021/05/20 10:58:29;;;;;;;43.55;19.55;;;;;;;;;;5055218;28;20021;-50
2021/05/20 11:00:55;;;;;;;35.85;18.67;;;;;;;;;;5055111;28;20060;-56
2021/05/20 11:03:41;;;;;;;38.08;16.85;;;;;;;;;;5055299;28;20104;-52
2021/05/20 11:06:07;;;;;;;27.58;14.00;;;;;;;;;;5054925;28;20029;-54
2021/05/20 11:08:34;;;;;;;27.80;14.20;;;;;;;;;;5055053;28;20060;-56
2021/05/20 11:11:00;;;;;;;26.08;13.98;;;;;;;;;;5054778;28;20036;-51
2021/05/20 11:13:36;;;;;;;13.40;9.95;;;;;;;;;;5054980;28;20029;-49
2021/05/20 11:16:17;;;;;;;15.60;10.00;;;;;;;;;;5054740;28;20041;-50
2021/05/20 11:18:45;;;;;;;19.52;10.75;;;;;;;;;;5054784;28;20036;-53
2021/05/20 11:21:11;;;;;;;16.90;11.35;;;;;;;;;;5054949;28;20021;-55
2021/05/20 11:23:40;;;;;;;19.00;11.18;;;;;;;;;;5054710;28;20052;-56
2021/05/20 11:26:07;;;;;;;14.57;9.82;;;;;;;;;;5054474;28;20025;-56
2021/05/20 11:28:40;;;;;;;15.07;9.55;;;;;;;;;;5054767;28;20017;-56
2021/05/20 11:31:06;;;;;;;15.43;11.02;;;;;;;;;;5054487;28;20024;-56
2021/05/20 11:33:39;;;;;;;12.35;8.48;;;;;;;;;;5054508;28;20024;-56
2021/05/20 11:36:12;;;;;;;18.35;8.65;;;;;;;;;;5054475;28;20036;-58
2021/05/20 11:38:38;;;;;;;15.18;9.52;;;;;;;;;;5054750;28;20388;-56
2021/05/20 11:41:19;;;;;;;14.43;9.63;;;;;;;;;;5054478;28;20025;-56
2021/05/20 11:43:46;;;;;;;13.68;9.63;;;;;;;;;;5054627;28;20017;-51
2021/05/20 11:46:22;;;;;;;13.10;9.18;;;;;;;;;;5054227;28;20079;-52
2021/05/20 11:48:55;;;;;;;11.52;9.70;;;;;;;;;;5054156;28;20025;-57
2021/05/20 11:51:40;;;;;;;13.15;9.60;;;;;;;;;;5053980;28;20084;-56
2021/05/20 11:54:13;;;;;;;11.05;9.63;;;;;;;;;;5054304;28;20041;-57
2021/05/20 11:56:40;;;;;;;13.90;10.25;;;;;;;;;;5053936;28;20041;-56
2021/05/20 11:59:06;;;;;;;15.15;11.10;;;;;;;;;;5054176;28;20051;-56
2021/05/20 12:01:33;;;;;;;13.82;10.43;;;;;;;;;;5054401;28;20033;-55
2021/05/20 12:04:09;;;;;;;16.00;11.00;;;;;;;;;;5053783;28;20485;-56
2021/05/20 12:06:35;;;;;;;13.90;11.35;;;;;;;;;;5054746;28;20523;-56
2021/05/20 12:09:05;;;;;;;15.75;11.27;;;;;;;;;;5054292;28;20025;-54
2021/05/20 12:11:33;;;;;;;13.73;11.48;;;;;;;;;;5054007;28;20078;-56
2021/05/20 12:13:59;;;;;;;14.98;11.50;;;;;;;;;;5053910;28;20024;-57
2021/05/20 12:16:33;;;;;;;16.35;11.57;;;;;;;;;;5053961;28;20106;-54
2021/05/20 12:18:59;;;;;;;16.67;12.27;;;;;;;;;;5053910;28;20020;-54
2021/05/20 12:21:26;;;;;;;13.40;11.60;;;;;;;;;;5053935;28;20087;-56
2021/05/20 12:23:58;;;;;;;15.65;12.45;;;;;;;;;;5053760;28;20100;-52
2021/05/20 12:26:28;;;;;;;16.88;12.27;;;;;;;;;;5053681;28;20032;-55
2021/05/20 12:28:55;;;;;;;14.90;11.43;;;;;;;;;;5035716;28;20469;-51
2021/05/20 12:31:21;;;;;;;13.02;11.45;;;;;;;;;;5053597;28;20021;-53
2021/05/20 12:33:48;;;;;;;14.80;12.57;;;;;;;;;;5053665;28;20051;-56
2021/05/20 12:36:29;;;;;;;17.40;12.43;;;;;;;;;;5053430;28;20044;-55
2021/05/20 12:38:55;;;;;;;18.40;12.63;;;;;;;;;;5053749;28;20031;-56
2021/05/20 12:41:23;;;;;;;17.75;13.25;;;;;;;;;;5053290;28;20105;-56
2021/05/20 12:43:49;;;;;;;17.23;12.52;;;;;;;;;;5053354;28;20025;-54
2021/05/20 12:46:17;;;;;;;17.70;13.35;;;;;;;;;;5053473;28;20113;-56
2021/05/20 12:48:46;;;;;;;16.88;11.75;;;;;;;;;;5053358;28;20037;-57
2021/05/20 12:51:14;;;;;;;15.45;11.80;;;;;;;;;;5053003;28;20412;-51
2021/05/20 12:53:43;;;;;;;16.00;11.77;;;;;;;;;;5053461;28;20391;-56
2021/05/20 12:56:30;;;;;;;17.30;12.55;;;;;;;;;;5053260;28;20033;-55
2021/05/20 12:59:00;;;;;;;14.23;12.70;;;;;;;;;;5053665;28;20100;-55
2021/05/20 13:01:28;;;;;;;16.02;13.52;;;;;;;;;;5053200;28;20029;-57
2021/05/20 13:03:56;;;;;;;17.30;13.65;;;;;;;;;;5035251;28;20028;-53
2021/05/20 13:06:24;;;;;;;15.82;13.10;;;;;;;;;;5053224;28;20029;-54
2021/05/20 13:08:50;;;;;;;20.95;15.90;;;;;;;;;;5053242;28;20082;-57
2021/05/20 13:11:28;;;;;;;20.98;14.35;;;;;;;;;;5052990;28;20024;-57
2021/05/20 13:13:54;;;;;;;21.73;14.15;;;;;;;;;;5053133;28;20021;-57
2021/05/20 13:16:26;;;;;;;18.98;13.00;;;;;;;;;;5052874;28;20029;-56
2021/05/20 13:19:45;;;;;;;17.90;13.27;;;;;;;;;;5052990;28;20496;-57
2021/05/20 13:24:55;;;;;;;20.77;13.68;;;;;;;;;;5052978;28;20487;-56
2021/05/20 13:27:22;;;;;;;19.80;13.70;;;;;;;;;;5052863;28;20044;-56
2021/05/20 13:29:54;;;;;;;18.60;13.35;;;;;;;;;;5053130;28;20025;-54
2021/05/20 13:34:46;;;;;;;20.77;14.52;;;;;;;;;;5052892;28;20025;-57
2021/05/20 13:37:14;;;;;;;23.48;15.30;;;;;;;;;;5052835;28;20043;-57
2021/05/20 13:39:40;;;;;;;26.20;16.15;;;;;;;;;;5053050;28;20053;-55
2021/05/20 13:42:07;;;;;;;19.80;14.38;;;;;;;;;;5052717;28;20034;-52
2021/05/20 13:44:38;;;;;;;31.30;18.40;;;;;;;;;;5064945;28;20437;-56
2021/05/20 13:47:04;;;;;;;24.95;16.92;;;;;;;;;;5073113;28;20032;-56
2021/05/20 13:49:30;;;;;;;34.50;21.13;;;;;;;;;;5076230;28;20024;-55
2021/05/20 13:51:57;;;;;;;56.00;37.50;;;;;;;;;;5075929;28;20451;-56
2021/05/20 13:54:23;;;;;;;42.17;28.10;;;;;;;;;;5076072;28;20035;-56
2021/05/20 13:56:49;;;;;;;65.40;40.50;;;;;;;;;;5076068;28;20029;-58
2021/05/20 13:59:18;;;;;;;52.47;33.17;;;;;;;;;;5076083;28;20025;-59
2021/05/20 14:01:48;;;;;;;57.30;39.33;;;;;;;;;;5076196;28;20161;-66
2021/05/20 14:04:23;;;;;;;72.15;48.72;;;;;;;;;;5076022;28;20036;-62
2021/05/20 14:06:49;;;;;;;80.90;48.38;;;;;;;;;;5075893;28;20031;-63
2021/05/20 14:09:15;;;;;;;91.55;58.30;;;;;;;;;;5075720;28;20021;-59
2021/05/20 14:11:41;;;;;;;109.30;67.35;;;;;;;;;;5075978;28;20094;-64
2021/05/20 14:14:07;;;;;;;85.90;53.92;;;;;;;;;;5075785;28;20027;-57
2021/05/20 14:16:33;;;;;;;62.22;40.08;;;;;;;;;;5075692;28;20110;-55
2021/05/20 14:19:00;;;;;;;57.15;32.53;;;;;;;;;;5076076;28;20396;-56
2021/05/20 14:21:27;;;;;;;120.10;72.35;;;;;;;;;;5075686;28;20032;-52
2021/05/20 14:23:53;;;;;;;67.40;41.40;;;;;;;;;;5075960;28;20028;-51
2021/05/20 14:26:21;;;;;;;101.18;63.35;;;;;;;;;;5075491;28;20027;-52
2021/05/20 14:28:47;;;;;;;93.35;50.65;;;;;;;;;;5075743;28;20145;-58
2021/05/20 14:31:13;;;;;;;73.50;45.58;;;;;;;;;;5075342;28;20024;-61
2021/05/20 14:33:39;;;;;;;48.30;29.58;;;;;;;;;;5075527;28;20056;-65